Time;durP1;ratioP1;P1;durP2;ratioP2;P2;SDS_P1;SDS_P2;PMS_P1;PMS_P2;Temp;Humidity;BMP_temperature;BMP_pressure;BME280_temperature;BME280_humidity;BME280_pressure;Samples;Min_cycle;Max_cycle;Signal;HPM_P1;HPM_P2
2020/04/24 00:03:35;;;;;;;3.26;2.42;;;;;;;19.19;38.29;100397.47;;;;-52
2020/04/24 00:06:27;;;;;;;2.52;2.32;;;;;;;19.19;38.29;100395.73;;;;-52
2020/04/24 00:09:40;;;;;;;2.81;2.35;;;;;;;19.19;38.29;100399.41;;;;-54
2020/04/24 00:12:35;;;;;;;2.50;2.30;;;;;;;19.18;38.26;100397.77;;;;-53
2020/04/24 00:16:37;;;;;;;2.71;2.34;;;;;;;19.18;38.28;100396.42;;;;-52
2020/04/24 00:26:39;;;;;;;3.00;2.45;;;;;;;19.16;38.30;100392.65;;;;-52
2020/04/24 00:29:27;;;;;;;2.76;2.43;;;;;;;19.16;38.27;100390.07;;;;-52
2020/04/24 00:32:16;;;;;;;2.51;2.31;;;;;;;19.15;38.30;100385.34;;;;-55
2020/04/24 00:35:16;;;;;;;2.78;2.40;;;;;;;19.15;38.29;100385.53;;;;-54
2020/04/24 00:38:16;;;;;;;2.93;2.62;;;;;;;19.15;38.26;100391.20;;;;-54
2020/04/24 00:41:16;;;;;;;2.63;2.39;;;;;;;19.14;38.26;100383.78;;;;-54
2020/04/24 00:44:16;;;;;;;2.50;2.30;;;;;;;19.14;38.26;100386.36;;;;-54
2020/04/24 00:47:16;;;;;;;2.76;2.56;;;;;;;19.13;38.28;100379.89;;;;-54
2020/04/24 00:50:16;;;;;;;2.61;2.41;;;;;;;19.13;38.26;100371.92;;;;-54
2020/04/24 00:53:16;;;;;;;2.49;2.29;;;;;;;19.12;38.28;100371.52;;;;-52
2020/04/24 00:56:16;;;;;;;2.41;2.21;;;;;;;19.12;38.23;100370.23;;;;-52
2020/04/24 00:59:16;;;;;;;3.11;2.21;;;;;;;19.12;38.24;100367.66;;;;-52
2020/04/24 01:02:16;;;;;;;2.59;2.39;;;;;;;19.11;38.25;100366.37;;;;-54
2020/04/24 01:05:16;;;;;;;2.46;2.26;;;;;;;19.11;38.22;100367.68;;;;-53
2020/04/24 01:08:16;;;;;;;2.45;2.25;;;;;;;19.10;38.23;100361.88;;;;-53
2020/04/24 01:11:16;;;;;;;2.45;2.25;;;;;;;19.10;38.21;100363.28;;;;-53
2020/04/24 01:14:16;;;;;;;2.63;2.43;;;;;;;19.10;38.21;100365.16;;;;-54
2020/04/24 01:17:16;;;;;;;3.15;2.45;;;;;;;19.09;38.21;100360.66;;;;-53
2020/04/24 01:20:16;;;;;;;2.55;2.35;;;;;;;19.07;38.22;100358.84;;;;-53
2020/04/24 01:23:16;;;;;;;2.67;2.47;;;;;;;19.09;38.23;100358.38;;;;-52
2020/04/24 01:26:16;;;;;;;2.97;2.37;;;;;;;19.09;38.21;100355.14;;;;-52
2020/04/24 01:29:16;;;;;;;2.56;2.35;;;;;;;19.08;38.21;100346.96;;;;-52
2020/04/24 01:32:16;;;;;;;2.51;2.31;;;;;;;19.08;38.18;100345.12;;;;-52
2020/04/24 01:35:16;;;;;;;2.82;2.30;;;;;;;19.07;38.21;100342.33;;;;-52
2020/04/24 01:38:16;;;;;;;2.64;2.44;;;;;;;19.07;38.18;100336.70;;;;-52
2020/04/24 01:41:16;;;;;;;3.37;2.49;;;;;;;19.07;38.22;100334.30;;;;-52
2020/04/24 01:44:16;;;;;;;2.59;2.39;;;;;;;19.07;38.22;100332.36;;;;-53
2020/04/24 01:47:16;;;;;;;2.50;2.30;;;;;;;19.06;38.23;100329.40;;;;-52
2020/04/24 01:50:16;;;;;;;2.39;2.19;;;;;;;19.06;38.18;100327.73;;;;-53
2020/04/24 01:53:16;;;;;;;2.75;2.55;;;;;;;19.06;38.21;100326.55;;;;-52
2020/04/24 01:56:16;;;;;;;2.58;2.37;;;;;;;19.05;38.18;100323.50;;;;-53
2020/04/24 01:59:16;;;;;;;2.78;2.55;;;;;;;19.05;38.23;100324.27;;;;-52
2020/04/24 02:02:16;;;;;;;2.63;2.34;;;;;;;19.05;38.17;100319.47;;;;-51
2020/04/24 02:05:16;;;;;;;2.59;2.39;;;;;;;19.05;38.18;100318.04;;;;-52
2020/04/24 02:08:16;;;;;;;2.85;2.35;;;;;;;19.04;38.22;100318.27;;;;-52
2020/04/24 02:11:16;;;;;;;2.59;2.39;;;;;;;19.04;38.20;100319.33;;;;-53
2020/04/24 02:14:16;;;;;;;2.52;2.32;;;;;;;19.03;38.22;100316.98;;;;-53
2020/04/24 02:17:16;;;;;;;2.49;2.29;;;;;;;19.04;38.17;100325.52;;;;-52
2020/04/24 02:20:16;;;;;;;2.47;2.24;;;;;;;19.04;38.17;100327.97;;;;-52
2020/04/24 02:23:16;;;;;;;2.60;2.40;;;;;;;19.03;38.20;100328.09;;;;-53
2020/04/24 02:26:16;;;;;;;2.67;2.47;;;;;;;19.03;38.16;100329.36;;;;-53
2020/04/24 02:29:16;;;;;;;2.62;2.42;;;;;;;19.02;38.20;100332.84;;;;-53
2020/04/24 02:32:16;;;;;;;3.04;2.21;;;;;;;19.02;38.17;100335.52;;;;-52
2020/04/24 02:35:16;;;;;;;2.62;2.42;;;;;;;19.02;38.19;100334.91;;;;-52
2020/04/24 02:38:16;;;;;;;2.51;2.31;;;;;;;19.01;38.18;100335.20;;;;-53
2020/04/24 02:41:16;;;;;;;2.83;2.41;;;;;;;19.01;38.17;100337.64;;;;-53
2020/04/24 02:44:26;;;;;;;2.49;2.29;;;;;;;19.01;38.21;100341.22;;;;-52
2020/04/24 02:47:22;;;;;;;2.74;2.50;;;;;;;19.00;38.21;100339.95;;;;-53
2020/04/24 02:50:16;;;;;;;2.51;2.31;;;;;;;18.99;38.21;100336.39;;;;-52
2020/04/24 02:53:16;;;;;;;2.55;2.35;;;;;;;19.00;38.20;100342.45;;;;-54
2020/04/24 02:56:16;;;;;;;2.66;2.45;;;;;;;19.00;38.21;100341.01;;;;-53
2020/04/24 02:59:16;;;;;;;2.50;2.30;;;;;;;18.99;38.21;100341.74;;;;-54
2020/04/24 03:02:16;;;;;;;2.53;2.33;;;;;;;18.98;38.17;100340.70;;;;-52
2020/04/24 03:05:16;;;;;;;2.61;2.41;;;;;;;18.98;38.22;100337.74;;;;-52
2020/04/24 03:08:16;;;;;;;2.59;2.39;;;;;;;18.98;38.19;100335.91;;;;-52
2020/04/24 03:11:16;;;;;;;2.63;2.43;;;;;;;18.98;38.21;100334.16;;;;-52
2020/04/24 03:14:16;;;;;;;2.56;2.36;;;;;;;18.98;38.21;100333.56;;;;-52
2020/04/24 03:17:16;;;;;;;2.77;2.40;;;;;;;18.98;38.19;100331.55;;;;-52
2020/04/24 03:20:16;;;;;;;2.56;2.36;;;;;;;18.96;38.20;100326.72;;;;-52
2020/04/24 03:23:16;;;;;;;2.64;2.44;;;;;;;18.96;38.20;100321.93;;;;-52
2020/04/24 03:26:16;;;;;;;2.56;2.36;;;;;;;18.96;38.17;100326.28;;;;-53
2020/04/24 03:29:16;;;;;;;2.49;2.29;;;;;;;18.95;38.19;100318.23;;;;-52
2020/04/24 03:32:16;;;;;;;2.49;2.28;;;;;;;18.96;38.18;100319.41;;;;-52
2020/04/24 03:35:16;;;;;;;2.53;2.33;;;;;;;18.95;38.15;100316.80;;;;-52
2020/04/24 03:38:16;;;;;;;2.65;2.40;;;;;;;18.95;38.13;100309.53;;;;-52
2020/04/24 03:41:16;;;;;;;2.48;2.28;;;;;;;18.95;38.17;100308.66;;;;-52
2020/04/24 03:44:16;;;;;;;2.35;2.15;;;;;;;18.94;38.16;100308.05;;;;-54
2020/04/24 03:47:16;;;;;;;2.69;2.49;;;;;;;18.94;38.18;100308.95;;;;-52
2020/04/24 03:50:16;;;;;;;2.63;2.43;;;;;;;18.93;38.15;100305.27;;;;-52
2020/04/24 03:53:16;;;;;;;2.79;2.59;;;;;;;18.93;38.15;100299.57;;;;-52
2020/04/24 03:56:16;;;;;;;3.33;2.38;;;;;;;18.93;38.11;100298.86;;;;-52
2020/04/24 03:59:16;;;;;;;2.63;2.43;;;;;;;18.93;38.15;100299.20;;;;-52
2020/04/24 04:02:16;;;;;;;2.67;2.47;;;;;;;18.92;38.18;100295.34;;;;-54
2020/04/24 04:05:16;;;;;;;2.67;2.47;;;;;;;18.92;38.15;100297.09;;;;-52
2020/04/24 04:08:16;;;;;;;2.73;2.53;;;;;;;18.92;38.15;100297.19;;;;-52
2020/04/24 04:11:16;;;;;;;2.73;2.53;;;;;;;18.91;38.17;100294.30;;;;-54
2020/04/24 04:14:16;;;;;;;3.11;2.80;;;;;;;18.92;38.14;100299.19;;;;-54
2020/04/24 04:17:16;;;;;;;2.58;2.38;;;;;;;18.91;38.13;100296.04;;;;-54
2020/04/24 04:20:16;;;;;;;2.62;2.42;;;;;;;18.91;38.15;100298.55;;;;-54
2020/04/24 04:23:16;;;;;;;2.63;2.43;;;;;;;18.91;38.17;100298.71;;;;-54
2020/04/24 04:26:16;;;;;;;2.54;2.34;;;;;;;18.91;38.14;100297.38;;;;-54
2020/04/24 04:29:16;;;;;;;2.95;2.41;;;;;;;18.90;38.18;100300.34;;;;-54
2020/04/24 04:32:16;;;;;;;2.70;2.50;;;;;;;18.91;38.15;100302.06;;;;-52
2020/04/24 04:35:16;;;;;;;2.50;2.30;;;;;;;18.91;38.17;100298.31;;;;-54
2020/04/24 04:38:16;;;;;;;2.62;2.42;;;;;;;18.91;38.16;100301.72;;;;-55
2020/04/24 04:41:16;;;;;;;2.70;2.50;;;;;;;18.91;38.18;100304.40;;;;-54
2020/04/24 04:44:16;;;;;;;2.60;2.40;;;;;;;18.90;38.16;100299.78;;;;-53
2020/04/24 04:47:16;;;;;;;2.55;2.35;;;;;;;18.90;38.17;100301.78;;;;-53
2020/04/24 04:50:16;;;;;;;2.71;2.51;;;;;;;18.90;38.13;100305.02;;;;-55
2020/04/24 04:53:16;;;;;;;3.42;2.63;;;;;;;18.90;38.17;100310.61;;;;-54
2020/04/24 04:56:16;;;;;;;2.67;2.47;;;;;;;18.89;38.12;100307.09;;;;-54
2020/04/24 04:59:17;;;;;;;2.69;2.49;;;;;;;18.90;38.16;100305.86;;;;-53
2020/04/24 05:02:52;;;;;;;2.71;2.51;;;;;;;18.90;38.12;100309.94;;;;-54
2020/04/24 05:05:16;;;;;;;2.87;2.67;;;;;;;18.89;38.14;100313.45;;;;-54
2020/04/24 05:08:16;;;;;;;2.83;2.61;;;;;;;18.90;38.12;100310.11;;;;-54
2020/04/24 05:11:16;;;;;;;3.03;2.58;;;;;;;18.90;38.13;100312.16;;;;-53
2020/04/24 05:14:16;;;;;;;2.79;2.59;;;;;;;18.90;38.10;100312.72;;;;-55
2020/04/24 05:17:16;;;;;;;2.87;2.65;;;;;;;18.89;38.09;100313.08;;;;-53
2020/04/24 05:20:16;;;;;;;2.69;2.49;;;;;;;18.89;38.09;100310.27;;;;-54
2020/04/24 05:23:16;;;;;;;2.62;2.42;;;;;;;18.89;38.13;100309.16;;;;-54
2020/04/24 05:26:16;;;;;;;2.62;2.42;;;;;;;18.89;38.14;100312.11;;;;-55
2020/04/24 05:29:16;;;;;;;2.61;2.41;;;;;;;18.89;38.11;100318.87;;;;-54
2020/04/24 05:32:16;;;;;;;2.94;2.65;;;;;;;18.89;38.11;100314.19;;;;-55
2020/04/24 05:35:16;;;;;;;2.93;2.73;;;;;;;18.89;38.10;100318.80;;;;-53
2020/04/24 05:38:16;;;;;;;2.73;2.53;;;;;;;18.89;38.11;100318.77;;;;-52
2020/04/24 05:41:16;;;;;;;2.70;2.50;;;;;;;18.89;38.12;100321.38;;;;-54
2020/04/24 05:44:16;;;;;;;2.67;2.47;;;;;;;18.88;38.07;100323.11;;;;-53
2020/04/24 05:47:16;;;;;;;2.69;2.49;;;;;;;18.89;38.11;100315.59;;;;-52
2020/04/24 05:50:16;;;;;;;2.77;2.57;;;;;;;18.88;38.09;100318.83;;;;-54
2020/04/24 05:53:16;;;;;;;2.69;2.49;;;;;;;18.88;38.13;100320.77;;;;-53
2020/04/24 05:56:16;;;;;;;2.70;2.50;;;;;;;18.88;38.09;100318.89;;;;-55
2020/04/24 05:59:16;;;;;;;2.63;2.43;;;;;;;18.88;38.12;100312.80;;;;-55
2020/04/24 06:02:16;;;;;;;2.73;2.53;;;;;;;18.87;38.15;100311.29;;;;-53
2020/04/24 06:05:17;;;;;;;3.45;2.65;;;;;;;18.88;38.12;100318.89;;;;-56
2020/04/24 06:08:23;;;;;;;2.61;2.41;;;;;;;18.88;38.17;100312.30;;;;-56
2020/04/24 06:11:25;;;;;;;2.61;2.41;;;;;;;18.87;38.20;100310.02;;;;-54
2020/04/24 06:14:21;;;;;;;2.93;2.63;;;;;;;18.87;38.21;100314.77;;;;-56
2020/04/24 06:18:08;;;;;;;2.68;2.48;;;;;;;18.87;38.17;100310.28;;;;-56
2020/04/24 06:27:39;;;;;;;3.36;2.51;;;;;;;18.87;38.23;100307.13;;;;-56
2020/04/24 06:34:37;;;;;;;2.86;2.61;;;;;;;18.87;38.25;100310.98;;;;-56
2020/04/24 06:37:23;;;;;;;2.89;2.69;;;;;;;18.87;38.25;100310.25;;;;-56
2020/04/24 06:40:24;;;;;;;2.80;2.52;;;;;;;18.86;38.27;100309.73;;;;-55
2020/04/24 06:43:25;;;;;;;2.98;2.68;;;;;;;18.86;38.25;100309.77;;;;-56
2020/04/24 06:46:23;;;;;;;3.08;2.64;;;;;;;18.86;38.25;100302.71;;;;-56
2020/04/24 06:49:33;;;;;;;2.63;2.43;;;;;;;18.86;38.24;100306.45;;;;-55
2020/04/24 06:58:23;;;;;;;2.79;2.59;;;;;;;18.86;38.25;100296.02;;;;-56
2020/04/24 07:01:23;;;;;;;2.82;2.62;;;;;;;18.86;38.28;100296.52;;;;-56
2020/04/24 07:04:37;;;;;;;2.51;2.31;;;;;;;18.86;38.29;100294.02;;;;-54
2020/04/24 07:19:27;;;;;;;2.70;2.50;;;;;;;18.86;38.21;100290.23;;;;-56
2020/04/24 07:23:04;;;;;;;3.34;2.40;;;;;;;18.86;38.24;100289.79;;;;-56
2020/04/24 07:25:33;;;;;;;2.70;2.50;;;;;;;18.86;38.19;100286.55;;;;-56
2020/04/24 07:28:34;;;;;;;3.96;2.41;;;;;;;18.87;38.39;100279.56;;;;-52
2020/04/24 07:31:27;;;;;;;2.77;2.50;;;;;;;18.89;38.93;100280.22;;;;-56
2020/04/24 07:34:25;;;;;;;2.56;2.30;;;;;;;18.91;38.84;100279.80;;;;-56
2020/04/24 07:37:30;;;;;;;2.97;2.52;;;;;;;18.93;38.93;100275.54;;;;-55
2020/04/24 07:41:15;;;;;;;3.95;2.49;;;;;;;18.94;38.93;100273.84;;;;-55
2020/04/24 07:44:33;;;;;;;2.71;2.51;;;;;;;18.96;39.10;100273.39;;;;-54
2020/04/24 07:47:34;;;;;;;2.64;2.44;;;;;;;18.97;39.14;100274.55;;;;-54
2020/04/24 07:50:25;;;;;;;2.59;2.37;;;;;;;18.98;39.29;100272.65;;;;-54
2020/04/24 07:54:44;;;;;;;6.61;2.41;;;;;;;18.99;39.37;100268.00;;;;-58
2020/04/24 07:57:28;;;;;;;4.19;2.59;;;;;;;19.02;39.34;100269.91;;;;-55
2020/04/24 08:00:36;;;;;;;3.43;2.70;;;;;;;19.04;39.30;100262.19;;;;-53
2020/04/24 08:03:20;;;;;;;4.75;2.67;;;;;;;19.04;39.40;100257.84;;;;-54
2020/04/24 08:06:16;;;;;;;4.73;2.63;;;;;;;19.05;39.38;100252.77;;;;-53
2020/04/24 08:09:16;;;;;;;3.51;2.71;;;;;;;19.05;39.52;100249.86;;;;-50
2020/04/24 08:12:16;;;;;;;2.57;2.37;;;;;;;19.06;39.46;100249.06;;;;-55
2020/04/24 08:15:16;;;;;;;3.17;2.61;;;;;;;19.08;39.58;100247.13;;;;-57
2020/04/24 08:18:16;;;;;;;2.83;2.52;;;;;;;19.10;39.33;100242.70;;;;-57
2020/04/24 08:21:16;;;;;;;2.71;2.50;;;;;;;19.11;39.34;100246.09;;;;-54
2020/04/24 08:24:16;;;;;;;6.15;2.69;;;;;;;19.12;39.23;100243.30;;;;-59
2020/04/24 08:27:16;;;;;;;3.33;2.62;;;;;;;19.14;39.20;100243.81;;;;-54
2020/04/24 08:30:16;;;;;;;4.51;2.59;;;;;;;19.14;39.28;100238.66;;;;-56
2020/04/24 08:33:16;;;;;;;5.43;2.72;;;;;;;19.17;39.10;100240.25;;;;-57
2020/04/24 08:36:16;;;;;;;4.61;2.82;;;;;;;19.17;39.14;100243.53;;;;-57
2020/04/24 08:39:16;;;;;;;7.05;2.88;;;;;;;19.17;39.10;100247.78;;;;-58
2020/04/24 08:42:16;;;;;;;5.06;2.71;;;;;;;19.16;39.03;100245.47;;;;-57
2020/04/24 08:45:16;;;;;;;4.34;2.91;;;;;;;19.15;39.00;100247.53;;;;-58
2020/04/24 08:48:16;;;;;;;7.85;2.89;;;;;;;19.14;39.12;100249.20;;;;-58
2020/04/24 08:51:16;;;;;;;6.16;2.96;;;;;;;19.17;39.18;100244.54;;;;-62
2020/04/24 08:54:16;;;;;;;5.78;2.83;;;;;;;19.17;39.05;100242.83;;;;-61
2020/04/24 08:57:16;;;;;;;5.49;2.73;;;;;;;19.15;38.98;100235.19;;;;-64
2020/04/24 09:00:16;;;;;;;9.69;2.94;;;;;;;19.16;39.00;100238.77;;;;-62
2020/04/24 09:03:16;;;;;;;5.04;2.49;;;;;;;19.15;38.92;100234.68;;;;-53
2020/04/24 09:06:16;;;;;;;3.65;2.91;;;;;;;19.18;39.07;100236.01;;;;-53
2020/04/24 09:09:16;;;;;;;4.17;3.08;;;;;;;19.17;39.11;100230.11;;;;-56
2020/04/24 09:12:16;;;;;;;4.48;2.71;;;;;;;19.19;39.14;100234.81;;;;-53
2020/04/24 09:15:16;;;;;;;4.83;2.89;;;;;;;19.19;39.25;100231.40;;;;-56
2020/04/24 09:18:16;;;;;;;4.47;2.85;;;;;;;19.20;39.30;100233.95;;;;-51
2020/04/24 09:21:16;;;;;;;4.56;2.81;;;;;;;19.22;39.31;100233.10;;;;-55
2020/04/24 09:24:16;;;;;;;3.65;2.79;;;;;;;19.22;39.31;100230.02;;;;-55
2020/04/24 09:27:16;;;;;;;5.70;2.82;;;;;;;19.23;39.36;100227.11;;;;-56
2020/04/24 09:30:16;;;;;;;5.59;2.72;;;;;;;19.23;39.37;100225.27;;;;-51
2020/04/24 09:33:16;;;;;;;4.55;2.75;;;;;;;19.25;39.31;100224.19;;;;-57
2020/04/24 09:36:16;;;;;;;4.81;2.77;;;;;;;19.25;39.32;100219.93;;;;-54
2020/04/24 09:39:16;;;;;;;5.76;2.81;;;;;;;19.25;39.32;100220.10;;;;-54
2020/04/24 09:42:16;;;;;;;4.77;2.63;;;;;;;19.26;39.33;100217.36;;;;-53
2020/04/24 09:45:16;;;;;;;3.69;2.72;;;;;;;19.27;39.36;100211.70;;;;-57
2020/04/24 09:48:16;;;;;;;3.58;2.77;;;;;;;19.27;39.31;100217.17;;;;-52
2020/04/24 09:51:16;;;;;;;3.09;2.63;;;;;;;19.28;39.31;100210.58;;;;-52
2020/04/24 09:54:16;;;;;;;4.70;2.97;;;;;;;19.29;39.32;100207.34;;;;-55
2020/04/24 09:57:16;;;;;;;3.69;2.80;;;;;;;19.29;39.33;100206.59;;;;-51
2020/04/24 10:00:16;;;;;;;3.05;2.71;;;;;;;19.30;39.32;100202.29;;;;-51
2020/04/24 10:03:22;;;;;;;3.77;2.63;;;;;;;19.30;39.38;100198.94;;;;-52
2020/04/24 10:06:26;;;;;;;4.81;3.00;;;;;;;19.31;39.41;100195.91;;;;-55
2020/04/24 10:09:29;;;;;;;6.91;3.04;;;;;;;19.34;39.37;100191.97;;;;-52
2020/04/24 10:12:43;;;;;;;5.12;2.70;;;;;;;19.33;39.31;100186.17;;;;-52
2020/04/24 10:21:00;;;;;;;7.71;2.77;;;;;;;19.32;39.17;100173.80;;;;-53
2020/04/24 10:26:18;;;;;;;3.93;2.83;;;;;;;19.30;39.12;100160.77;;;;-53
2020/04/24 10:29:16;;;;;;;2.91;2.47;;;;;;;19.30;39.06;100156.41;;;;-53
2020/04/24 10:32:16;;;;;;;4.03;2.87;;;;;;;19.30;39.05;100160.43;;;;-53
2020/04/24 10:35:16;;;;;;;4.99;2.59;;;;;;;19.29;38.99;100161.23;;;;-53
2020/04/24 10:38:16;;;;;;;6.30;2.74;;;;;;;19.28;38.98;100154.16;;;;-53
2020/04/24 10:41:16;;;;;;;4.07;2.61;;;;;;;19.29;38.94;100153.86;;;;-53
2020/04/24 10:44:16;;;;;;;3.43;2.62;;;;;;;19.28;38.89;100147.06;;;;-53
2020/04/24 10:47:16;;;;;;;4.05;2.76;;;;;;;19.27;38.88;100148.92;;;;-53
2020/04/24 10:50:16;;;;;;;3.71;2.66;;;;;;;19.26;38.87;100134.99;;;;-53
2020/04/24 10:53:16;;;;;;;3.06;2.61;;;;;;;19.27;38.84;100127.66;;;;-53
2020/04/24 10:56:16;;;;;;;4.39;2.67;;;;;;;19.27;38.81;100126.66;;;;-54
2020/04/24 10:59:16;;;;;;;4.02;2.65;;;;;;;19.26;38.80;100124.55;;;;-53
2020/04/24 11:02:16;;;;;;;3.89;2.65;;;;;;;19.25;38.70;100114.63;;;;-54
2020/04/24 11:05:16;;;;;;;3.84;2.68;;;;;;;19.25;38.75;100109.84;;;;-54
2020/04/24 11:08:16;;;;;;;3.69;2.57;;;;;;;19.24;38.71;100108.89;;;;-53
2020/04/24 11:11:16;;;;;;;4.28;2.78;;;;;;;19.24;38.71;100097.34;;;;-52
2020/04/24 11:14:16;;;;;;;3.36;2.67;;;;;;;19.25;38.71;100094.03;;;;-53
2020/04/24 11:17:16;;;;;;;2.86;2.59;;;;;;;19.24;38.65;100091.31;;;;-53
2020/04/24 11:20:16;;;;;;;6.54;2.67;;;;;;;19.24;38.65;100088.47;;;;-53
2020/04/24 11:23:16;;;;;;;2.54;2.31;;;;;;;19.23;38.66;100082.58;;;;-53
2020/04/24 11:26:16;;;;;;;3.18;2.40;;;;;;;19.24;38.60;100078.42;;;;-53
2020/04/24 11:29:16;;;;;;;3.62;2.53;;;;;;;19.23;38.64;100073.20;;;;-53
2020/04/24 11:32:16;;;;;;;3.05;2.60;;;;;;;19.24;38.60;100066.70;;;;-53
2020/04/24 11:35:21;;;;;;;2.96;2.53;;;;;;;19.23;38.62;100062.14;;;;-53
2020/04/24 11:38:21;;;;;;;2.69;2.49;;;;;;;19.22;38.59;100062.68;;;;-53
2020/04/24 11:41:16;;;;;;;3.31;2.41;;;;;;;19.23;38.56;100055.84;;;;-54
2020/04/24 11:44:16;;;;;;;3.81;2.61;;;;;;;19.22;38.54;100050.56;;;;-53
2020/04/24 11:47:16;;;;;;;3.75;2.62;;;;;;;19.21;38.57;100051.19;;;;-53
2020/04/24 11:50:16;;;;;;;3.48;2.52;;;;;;;19.22;38.53;100049.95;;;;-53
2020/04/24 11:53:16;;;;;;;2.70;2.38;;;;;;;19.21;38.51;100041.05;;;;-53
2020/04/24 11:56:16;;;;;;;2.81;2.55;;;;;;;19.22;38.53;100047.04;;;;-52
2020/04/24 11:59:16;;;;;;;2.63;2.43;;;;;;;19.21;38.54;100041.31;;;;-53
2020/04/24 12:02:16;;;;;;;2.77;2.57;;;;;;;19.21;38.51;100034.12;;;;-53
2020/04/24 12:05:16;;;;;;;2.68;2.43;;;;;;;19.21;38.55;100039.47;;;;-53
2020/04/24 12:08:16;;;;;;;2.77;2.50;;;;;;;19.21;38.47;100036.36;;;;-52
2020/04/24 12:11:16;;;;;;;3.42;2.49;;;;;;;19.21;38.49;100031.50;;;;-52
2020/04/24 12:14:16;;;;;;;2.74;2.33;;;;;;;19.20;38.49;100037.25;;;;-53
2020/04/24 12:17:16;;;;;;;2.55;2.35;;;;;;;19.21;38.50;100037.86;;;;-53
2020/04/24 12:20:16;;;;;;;3.53;2.48;;;;;;;19.20;38.52;100030.23;;;;-51
2020/04/24 12:23:16;;;;;;;3.41;2.51;;;;;;;19.22;38.67;100028.30;;;;-52
2020/04/24 12:26:16;;;;;;;2.69;2.45;;;;;;;19.23;38.76;100025.48;;;;-52
2020/04/24 12:29:16;;;;;;;2.75;2.33;;;;;;;19.24;38.80;100019.56;;;;-58
2020/04/24 12:32:16;;;;;;;3.29;2.71;;;;;;;19.25;38.82;100020.70;;;;-57
2020/04/24 12:35:16;;;;;;;3.29;2.47;;;;;;;19.26;38.93;100020.98;;;;-54
2020/04/24 12:38:16;;;;;;;2.60;2.40;;;;;;;19.26;39.00;100012.27;;;;-57
2020/04/24 12:41:16;;;;;;;3.02;2.47;;;;;;;19.28;39.05;100011.91;;;;-55
2020/04/24 12:44:16;;;;;;;3.47;2.29;;;;;;;19.29;39.03;100004.12;;;;-59
2020/04/24 12:47:16;;;;;;;2.50;2.30;;;;;;;19.31;39.01;100002.92;;;;-53
2020/04/24 12:50:16;;;;;;;3.86;2.44;;;;;;;19.31;39.03;100009.12;;;;-58
2020/04/24 12:53:16;;;;;;;5.39;2.49;;;;;;;19.33;39.08;100001.99;;;;-60
2020/04/24 12:56:16;;;;;;;3.23;2.39;;;;;;;19.34;39.09;99999.85;;;;-49
2020/04/24 12:59:16;;;;;;;6.15;2.40;;;;;;;19.35;39.13;99994.20;;;;-53
2020/04/24 13:02:16;;;;;;;3.28;2.60;;;;;;;19.35;39.16;99985.99;;;;-59
2020/04/24 13:05:16;;;;;;;3.55;2.65;;;;;;;19.36;39.15;99982.18;;;;-54
2020/04/24 13:08:16;;;;;;;3.17;2.43;;;;;;;19.37;39.04;99972.06;;;;-57
2020/04/24 13:11:16;;;;;;;3.71;2.65;;;;;;;19.38;38.95;99972.04;;;;-57
2020/04/24 13:14:16;;;;;;;5.23;2.57;;;;;;;19.36;39.01;99962.75;;;;-57
2020/04/24 13:17:16;;;;;;;5.33;2.71;;;;;;;19.36;39.06;99958.30;;;;-56
2020/04/24 13:20:16;;;;;;;3.17;2.51;;;;;;;19.34;38.97;99955.58;;;;-56
2020/04/24 13:23:16;;;;;;;3.54;2.62;;;;;;;19.34;38.91;99943.26;;;;-57
2020/04/24 13:26:16;;;;;;;6.13;2.53;;;;;;;19.34;38.92;99942.25;;;;-56
2020/04/24 13:29:16;;;;;;;4.25;2.55;;;;;;;19.34;38.93;99947.44;;;;-57
2020/04/24 13:32:16;;;;;;;3.15;2.52;;;;;;;19.33;38.85;99946.97;;;;-56
2020/04/24 13:35:16;;;;;;;3.31;2.61;;;;;;;19.33;38.82;99948.18;;;;-57
2020/04/24 13:38:16;;;;;;;3.01;2.66;;;;;;;19.33;38.80;99941.38;;;;-56
2020/04/24 13:41:16;;;;;;;2.94;2.62;;;;;;;19.32;38.74;99928.72;;;;-56
2020/04/24 13:44:16;;;;;;;2.91;2.55;;;;;;;19.32;38.75;99938.83;;;;-57
2020/04/24 13:47:16;;;;;;;3.33;2.56;;;;;;;19.31;38.75;99929.16;;;;-55
2020/04/24 13:50:16;;;;;;;2.60;2.39;;;;;;;19.32;38.68;99926.78;;;;-56
2020/04/24 13:53:16;;;;;;;3.42;2.53;;;;;;;19.31;38.69;99924.23;;;;-57
2020/04/24 13:56:16;;;;;;;2.60;2.40;;;;;;;19.31;38.66;99913.52;;;;-57
2020/04/24 13:59:16;;;;;;;3.80;2.45;;;;;;;19.30;38.70;99906.38;;;;-57
2020/04/24 14:02:16;;;;;;;3.18;2.39;;;;;;;19.31;38.63;99910.00;;;;-57
2020/04/24 14:05:16;;;;;;;2.73;2.52;;;;;;;19.30;38.74;99911.41;;;;-48
2020/04/24 14:08:16;;;;;;;3.16;2.47;;;;;;;19.33;38.74;99908.73;;;;-48
2020/04/24 14:11:16;;;;;;;2.66;2.43;;;;;;;19.34;38.79;99903.84;;;;-48
2020/04/24 14:14:16;;;;;;;3.77;2.45;;;;;;;19.36;38.76;99899.73;;;;-49
2020/04/24 14:17:16;;;;;;;3.45;2.82;;;;;;;19.36;38.63;99888.08;;;;-58
2020/04/24 14:20:16;;;;;;;2.79;2.58;;;;;;;19.35;38.68;99882.35;;;;-59
2020/04/24 14:23:16;;;;;;;3.18;2.44;;;;;;;19.34;38.71;99884.09;;;;-59
2020/04/24 14:26:16;;;;;;;3.07;2.53;;;;;;;19.34;38.68;99894.20;;;;-59
2020/04/24 14:29:16;;;;;;;2.85;2.57;;;;;;;19.34;38.68;99888.01;;;;-59
2020/04/24 14:32:16;;;;;;;3.52;2.46;;;;;;;19.34;38.62;99893.53;;;;-59
2020/04/24 14:35:16;;;;;;;2.90;2.57;;;;;;;19.33;38.59;99886.91;;;;-59
2020/04/24 14:38:16;;;;;;;5.70;2.50;;;;;;;19.34;38.95;99880.91;;;;-53
2020/04/24 14:41:16;;;;;;;2.71;2.51;;;;;;;19.35;39.12;99881.78;;;;-50
2020/04/24 14:44:16;;;;;;;3.06;2.40;;;;;;;19.37;39.26;99886.91;;;;-50
2020/04/24 14:47:16;;;;;;;4.87;2.55;;;;;;;19.37;39.41;99886.04;;;;-49
2020/04/24 14:50:16;;;;;;;3.53;2.67;;;;;;;19.38;39.38;99884.57;;;;-62
2020/04/24 14:53:16;;;;;;;3.19;2.72;;;;;;;19.40;39.35;99882.97;;;;-61
2020/04/24 14:56:16;;;;;;;3.96;2.60;;;;;;;19.41;39.33;99881.19;;;;-62
2020/04/24 14:59:16;;;;;;;3.42;2.51;;;;;;;19.42;39.43;99878.92;;;;-61
2020/04/24 15:02:16;;;;;;;2.99;2.65;;;;;;;19.43;39.49;99876.88;;;;-50
2020/04/24 15:05:16;;;;;;;3.01;2.39;;;;;;;19.44;39.64;99877.45;;;;-53
2020/04/24 15:08:16;;;;;;;2.80;2.49;;;;;;;19.44;39.76;99866.89;;;;-52
2020/04/24 15:11:16;;;;;;;2.87;2.50;;;;;;;19.45;39.74;99869.88;;;;-49
2020/04/24 15:14:16;;;;;;;3.65;2.60;;;;;;;19.46;39.69;99871.82;;;;-51
2020/04/24 15:17:16;;;;;;;3.09;2.73;;;;;;;19.46;39.69;99879.52;;;;-57
2020/04/24 15:20:16;;;;;;;3.09;2.40;;;;;;;19.47;39.71;99871.55;;;;-53
2020/04/24 15:23:16;;;;;;;3.09;2.52;;;;;;;19.48;39.64;99871.72;;;;-52
2020/04/24 15:26:16;;;;;;;3.03;2.73;;;;;;;19.49;39.64;99875.05;;;;-55
2020/04/24 15:29:16;;;;;;;2.82;2.50;;;;;;;19.49;39.60;99873.20;;;;-54
2020/04/24 15:32:16;;;;;;;2.85;2.56;;;;;;;19.49;39.61;99866.67;;;;-52
2020/04/24 15:35:16;;;;;;;3.41;2.36;;;;;;;19.50;39.55;99871.73;;;;-54
2020/04/24 15:38:16;;;;;;;2.98;2.53;;;;;;;19.50;39.60;99865.47;;;;-63
2020/04/24 15:41:16;;;;;;;3.57;2.68;;;;;;;19.51;39.44;99863.73;;;;-59
2020/04/24 15:44:16;;;;;;;2.73;2.53;;;;;;;19.51;39.47;99858.37;;;;-65
2020/04/24 15:47:16;;;;;;;4.16;2.59;;;;;;;19.52;39.51;99860.75;;;;-54
2020/04/24 15:50:16;;;;;;;3.71;2.51;;;;;;;19.52;39.48;99863.92;;;;-64
2020/04/24 15:53:16;;;;;;;3.21;2.69;;;;;;;19.52;39.44;99857.90;;;;-57
2020/04/24 15:56:16;;;;;;;4.02;2.66;;;;;;;19.53;39.37;99855.09;;;;-59
2020/04/24 15:59:16;;;;;;;2.85;2.40;;;;;;;19.53;39.31;99855.76;;;;-59
2020/04/24 16:02:16;;;;;;;3.54;2.55;;;;;;;19.52;39.36;99853.05;;;;-59
2020/04/24 16:05:16;;;;;;;3.81;2.61;;;;;;;19.52;39.30;99847.58;;;;-58
2020/04/24 16:08:16;;;;;;;2.80;2.46;;;;;;;19.51;39.25;99852.27;;;;-59
2020/04/24 16:11:16;;;;;;;2.89;2.60;;;;;;;19.50;39.18;99841.75;;;;-59
2020/04/24 16:14:16;;;;;;;2.80;2.47;;;;;;;19.51;39.17;99847.22;;;;-60
2020/04/24 16:17:16;;;;;;;2.64;2.41;;;;;;;19.50;39.16;99853.75;;;;-59
2020/04/24 16:20:16;;;;;;;2.78;2.58;;;;;;;19.50;39.20;99852.20;;;;-55
2020/04/24 16:23:16;;;;;;;3.87;2.63;;;;;;;19.51;39.35;99850.83;;;;-54
2020/04/24 16:26:16;;;;;;;2.79;2.54;;;;;;;19.51;39.28;99847.81;;;;-56
2020/04/24 16:29:16;;;;;;;3.38;2.49;;;;;;;19.51;39.27;99845.30;;;;-59
2020/04/24 16:32:16;;;;;;;4.56;2.87;;;;;;;19.52;39.22;99843.39;;;;-60
2020/04/24 16:35:16;;;;;;;5.80;2.48;;;;;;;19.53;39.31;99846.44;;;;-59
2020/04/24 16:38:16;;;;;;;2.68;2.30;;;;;;;19.54;39.37;99837.09;;;;-52
2020/04/24 16:41:16;;;;;;;2.57;2.37;;;;;;;19.54;39.44;99839.05;;;;-59
2020/04/24 16:44:16;;;;;;;3.25;2.29;;;;;;;19.55;39.41;99836.23;;;;-62
2020/04/24 16:47:16;;;;;;;3.03;2.39;;;;;;;19.55;39.29;99832.20;;;;-61
2020/04/24 16:50:16;;;;;;;4.11;2.47;;;;;;;19.55;39.34;99830.70;;;;-59
2020/04/24 16:56:16;;;;;;;3.76;2.39;;;;;;;19.54;39.31;99824.47;;;;-58
2020/04/24 16:59:16;;;;;;;2.76;2.53;;;;;;;19.54;39.25;99824.30;;;;-61
2020/04/24 17:02:16;;;;;;;2.91;2.61;;;;;;;19.54;39.19;99822.46;;;;-59
2020/04/24 17:05:16;;;;;;;3.65;2.45;;;;;;;19.53;39.16;99817.97;;;;-58
2020/04/24 17:08:16;;;;;;;2.63;2.43;;;;;;;19.53;39.17;99816.30;;;;-53
2020/04/24 17:11:16;;;;;;;3.02;2.38;;;;;;;19.52;39.13;99816.87;;;;-59
2020/04/24 17:14:16;;;;;;;2.50;2.30;;;;;;;19.52;39.10;99811.07;;;;-58
2020/04/24 17:17:16;;;;;;;2.89;2.37;;;;;;;19.51;39.04;99811.07;;;;-58
2020/04/24 17:20:16;;;;;;;2.65;2.44;;;;;;;19.50;39.00;99807.42;;;;-58
2020/04/24 17:23:16;;;;;;;3.04;2.50;;;;;;;19.50;39.04;99810.20;;;;-58
2020/04/24 17:26:16;;;;;;;3.51;2.37;;;;;;;19.50;39.00;99805.08;;;;-60
2020/04/24 17:29:16;;;;;;;3.02;2.53;;;;;;;19.49;38.97;99802.97;;;;-60
2020/04/24 17:32:16;;;;;;;3.04;2.42;;;;;;;19.50;38.92;99803.73;;;;-58
2020/04/24 17:35:16;;;;;;;2.41;2.21;;;;;;;19.48;38.93;99801.49;;;;-58
2020/04/24 17:38:16;;;;;;;2.48;2.28;;;;;;;19.49;38.91;99799.45;;;;-60